Attività con fini culturali e ricreativi - Codice Fiscale 91122750689  


METAR

LIBP 171750Z VRB01KT 9999 SCT090 30/13 Q1016

Ultimi caricamenti...


VF-50 I-VFOB AB-412 Vigili del Fuoco

 


VF-50 I-VFOB AB-412 Vigili del Fuoco

 


VF-50 I-VFOB AB-412 Vigili del Fuoco

Questo sito non utilizza cookie di profilazione. Il sito utilizza cookie tecnici, di analisi anonima di prima parte e di terze parti per servizi di social network.